Time;durP1;ratioP1;P1;durP2;ratioP2;P2;SDS_P1;SDS_P2;PMS_P1;PMS_P2;Temp;Humidity;BMP_temperature;BMP_pressure;BME280_temperature;BME280_humidity;BME280_pressure;Samples;Min_cycle;Max_cycle;Signal;HPM_P1;HPM_P2
2024/01/08 00:01:36;;;;;;;3.53;2.13;;;-2.00;99.90;;;-3.17;100.00;97616.38;4938049;28;20070;-35
2024/01/08 00:04:03;;;;;;;3.25;2.15;;;-2.00;99.90;;;-3.16;100.00;97620.69;4940637;28;20098;-35
2024/01/08 00:06:29;;;;;;;3.28;1.83;;;-2.00;99.90;;;-3.19;100.00;97623.22;4939017;28;20097;-35
2024/01/08 00:08:55;;;;;;;4.15;2.25;;;-2.00;99.90;;;-3.20;100.00;97613.72;4942047;28;20645;-35
2024/01/08 00:11:21;;;;;;;3.67;2.20;;;-2.00;99.90;;;-3.12;100.00;97619.94;4936924;28;20745;-35
2024/01/08 00:13:47;;;;;;;2.58;1.90;;;-2.00;99.90;;;-3.20;100.00;97622.34;4954255;28;20038;-35
2024/01/08 00:16:13;;;;;;;3.13;2.03;;;-2.00;99.90;;;-3.17;100.00;97617.25;4936911;28;20039;-35
2024/01/08 00:18:38;;;;;;;3.25;1.73;;;-2.00;99.90;;;-3.17;100.00;97617.25;4934570;28;20425;-35
2024/01/08 00:21:04;;;;;;;2.47;1.65;;;-2.00;99.90;;;-3.25;100.00;97605.88;4935739;28;20042;-35
2024/01/08 00:23:33;;;;;;;3.17;1.83;;;-2.00;99.90;;;-3.22;100.00;97613.69;4933948;28;20484;-35
2024/01/08 00:25:59;;;;;;;2.75;2.05;;;-2.00;99.90;;;-3.15;100.00;97607.81;4937114;28;20372;-35
2024/01/08 00:28:25;;;;;;;5.45;2.10;;;-2.00;99.90;;;-3.10;100.00;97621.69;4936189;28;20581;-35
2024/01/08 00:30:52;;;;;;;5.75;2.00;;;-2.00;99.90;;;-3.12;100.00;97623.38;4936046;28;21295;-36
2024/01/08 00:33:17;;;;;;;3.35;2.20;;;-2.00;99.90;;;-3.18;100.00;97623.22;4936472;28;20034;-35
2024/01/08 00:35:43;;;;;;;3.95;2.08;;;-2.00;99.90;;;-3.08;100.00;97622.59;4937844;28;20086;-37
2024/01/08 00:38:09;;;;;;;3.75;2.10;;;-2.00;99.90;;;-3.15;100.00;97627.59;4937089;28;20047;-35
2024/01/08 00:40:34;;;;;;;3.13;1.90;;;-2.00;99.90;;;-3.09;100.00;97626.03;4937924;28;20043;-35
2024/01/08 00:43:00;;;;;;;3.85;2.10;;;-1.90;99.90;;;-3.25;100.00;97605.88;4936255;28;20038;-35
2024/01/08 00:45:26;;;;;;;2.42;2.03;;;-2.00;99.90;;;-3.13;100.00;97628.50;4936087;28;20043;-35
2024/01/08 00:47:52;;;;;;;3.08;2.03;;;-2.00;99.90;;;-3.05;100.00;97608.00;4935246;28;20087;-34
2024/01/08 00:50:17;;;;;;;2.90;1.85;;;-1.90;99.90;;;-3.12;100.00;97619.94;4936548;28;20130;-35
2024/01/08 00:52:43;;;;;;;3.70;2.05;;;-1.90;99.90;;;-3.20;100.00;97614.59;4938970;28;20480;-34
2024/01/08 00:55:11;;;;;;;3.50;2.22;;;-2.00;99.90;;;-3.25;100.00;97623.94;4936241;28;20169;-35
2024/01/08 00:57:38;;;;;;;4.15;2.10;;;-2.00;99.90;;;-3.22;100.00;97625.75;4938752;28;20138;-36
2024/01/08 01:00:11;;;;;;;3.22;1.95;;;-2.00;99.90;;;-3.17;100.00;97632.72;4936344;28;20047;-35
2024/01/08 01:02:38;;;;;;;4.22;2.20;;;-2.00;99.90;;;-3.19;100.00;97626.66;4936087;28;21377;-35
2024/01/08 01:05:04;;;;;;;4.32;2.33;;;-2.00;99.90;;;-3.29;100.00;97622.16;4935669;28;20043;-35
2024/01/08 01:07:30;;;;;;;4.28;2.20;;;-2.00;99.90;;;-3.18;100.00;97630.97;4936739;28;20388;-35
2024/01/08 01:09:56;;;;;;;3.95;2.10;;;-2.00;99.90;;;-3.23;100.00;97622.28;4933643;28;20035;-37
2024/01/08 01:12:22;;;;;;;3.50;2.10;;;-2.00;99.90;;;-3.21;100.00;97630.03;4920669;28;20491;-35
2024/01/08 01:14:47;;;;;;;6.28;2.80;;;-2.00;99.90;;;-3.14;100.00;97632.81;4938719;28;20042;-36
2024/01/08 01:17:13;;;;;;;4.25;2.22;;;-2.00;99.90;;;-3.18;100.00;97630.09;4937602;28;20035;-35
2024/01/08 01:19:39;;;;;;;3.38;2.15;;;-2.00;99.90;;;-3.19;100.00;97626.66;4937508;28;20160;-36
2024/01/08 01:22:05;;;;;;;3.17;2.13;;;-2.00;99.90;;;-3.16;100.00;97631.91;4937056;28;20147;-36
2024/01/08 01:24:31;;;;;;;4.38;2.13;;;-2.00;99.90;;;-3.18;100.00;97630.97;4932138;28;20150;-37
2024/01/08 01:26:56;;;;;;;3.42;2.22;;;-2.00;99.90;;;-3.10;100.00;97634.59;4937133;28;20384;-35
2024/01/08 01:29:22;;;;;;;3.13;2.30;;;-1.90;99.90;;;-2.97;100.00;97637.44;4938111;28;20038;-37
2024/01/08 01:31:48;;;;;;;4.45;2.22;;;-1.90;99.90;;;-2.99;100.00;97639.97;4937217;28;20039;-35
2024/01/08 01:34:13;;;;;;;3.80;2.33;;;-1.90;99.90;;;-2.97;100.00;97648.63;4940393;28;20035;-35
2024/01/08 01:36:39;;;;;;;4.78;2.70;;;-1.80;99.90;;;-2.89;100.00;97646.19;4937872;28;20050;-35
2024/01/08 01:39:05;;;;;;;5.68;2.50;;;-1.80;99.90;;;-3.04;100.00;97640.72;4940046;28;20058;-35
2024/01/08 01:41:32;;;;;;;4.50;2.45;;;-1.80;99.90;;;-3.06;100.00;97640.69;4935896;28;20160;-35
2024/01/08 01:43:58;;;;;;;5.13;2.58;;;-1.80;99.90;;;-3.04;100.00;97644.16;4933666;28;20039;-35
2024/01/08 01:46:45;;;;;;;4.28;2.70;;;-1.90;99.90;;;-3.06;100.00;97643.28;4924706;28;20047;-35
2024/01/08 01:49:13;;;;;;;3.53;2.60;;;-1.90;99.90;;;-3.02;100.00;97647.66;4935172;28;20459;-36
2024/01/08 01:51:47;;;;;;;3.95;2.30;;;-1.80;99.90;;;-3.10;100.00;97629.44;4935409;28;20126;-35
2024/01/08 01:54:15;;;;;;;3.95;2.40;;;-1.80;99.90;;;-3.14;100.00;97625.06;4936950;28;20430;-36
2024/01/08 01:56:43;;;;;;;4.25;2.45;;;-1.90;99.90;;;-3.08;100.00;97643.22;4936967;28;20469;-35
2024/01/08 01:59:10;;;;;;;4.80;2.60;;;-1.90;99.90;;;-3.05;100.00;97642.44;4936824;28;20053;-35
2024/01/08 02:01:36;;;;;;;4.85;2.88;;;-1.90;99.90;;;-3.10;100.00;97642.34;4934420;28;20137;-36
2024/01/08 02:04:03;;;;;;;5.13;3.13;;;-1.90;99.90;;;-3.09;100.00;97638.94;4953350;28;20560;-35
2024/01/08 02:06:29;;;;;;;4.97;2.70;;;-1.90;99.90;;;-3.11;100.00;97635.41;4933593;28;20412;-35
2024/01/08 02:08:56;;;;;;;4.22;2.80;;;-1.90;99.90;;;-2.94;100.00;97640.94;4939034;28;20408;-35
2024/01/08 02:11:22;;;;;;;3.20;2.05;;;-1.90;99.90;;;-2.97;100.00;97640.88;4932102;28;20035;-35
2024/01/08 02:14:54;;;;;;;3.63;2.70;;;-1.90;99.90;;;-3.00;100.00;97635.63;4926270;28;20738;-36
2024/01/08 02:17:19;;;;;;;4.38;2.50;;;-1.90;99.90;;;-3.03;100.00;97625.28;4917017;28;20035;-36
2024/01/08 02:19:45;;;;;;;3.97;2.70;;;-1.80;99.90;;;-3.04;100.00;97627.81;4935616;28;20484;-36
2024/01/08 02:22:12;;;;;;;4.07;2.78;;;-1.90;99.90;;;-3.07;100.00;97621.75;4935827;28;20077;-36
2024/01/08 02:24:39;;;;;;;4.60;2.63;;;-1.90;99.90;;;-3.01;100.00;97615.00;4933099;28;20031;-35
2024/01/08 02:27:05;;;;;;;3.58;2.40;;;-1.90;99.90;;;-2.98;100.00;97623.66;4936790;28;20492;-36
2024/01/08 02:29:31;;;;;;;3.92;2.38;;;-1.90;99.90;;;-2.98;100.00;97620.19;4938310;28;20294;-35
2024/01/08 02:31:56;;;;;;;3.63;2.45;;;-1.90;99.90;;;-3.03;100.00;97620.13;4935204;28;20519;-35
2024/01/08 02:34:22;;;;;;;4.57;2.83;;;-1.80;99.90;;;-3.05;100.00;97629.53;4935521;28;20566;-36
2024/01/08 02:36:48;;;;;;;4.38;2.85;;;-1.90;99.90;;;-3.08;100.00;97617.44;4932252;28;21078;-36
2024/01/08 02:39:13;;;;;;;4.32;3.00;;;-1.90;99.90;;;-3.07;100.00;97618.28;4935728;28;20407;-36
2024/01/08 02:41:39;;;;;;;3.33;2.72;;;-1.90;99.90;;;-3.12;100.00;97607.03;4936043;28;21301;-35
2024/01/08 02:44:04;;;;;;;3.88;2.50;;;-1.90;99.90;;;-3.09;100.00;97602.81;4940041;28;20480;-35
2024/01/08 02:46:30;;;;;;;4.15;2.80;;;-1.90;99.90;;;-3.05;100.00;97616.63;4938107;28;20039;-34
2024/01/08 02:48:58;;;;;;;5.43;2.90;;;-1.90;99.90;;;-3.06;100.00;97617.47;4941900;28;20114;-34
2024/01/08 02:51:24;;;;;;;4.20;2.78;;;-1.90;99.90;;;-3.04;100.00;97620.09;4936823;28;20037;-34
2024/01/08 02:53:50;;;;;;;4.65;2.90;;;-1.90;99.90;;;-3.03;100.00;97627.84;4942038;28;20091;-34
2024/01/08 02:56:23;;;;;;;4.68;2.95;;;-1.80;99.90;;;-3.05;100.00;97623.50;4939103;28;20039;-34
2024/01/08 02:58:49;;;;;;;7.18;3.00;;;-1.90;99.90;;;-3.01;100.00;97627.91;4940203;28;20114;-34
2024/01/08 03:01:14;;;;;;;5.38;2.78;;;-1.90;99.90;;;-3.10;100.00;97619.13;4937746;28;20491;-34
2024/01/08 03:03:40;;;;;;;5.28;3.00;;;-1.80;99.90;;;-3.01;100.00;97630.47;4937217;28;20031;-34
2024/01/08 03:06:06;;;;;;;4.32;2.90;;;-1.80;99.90;;;-3.06;100.00;97630.38;4939722;28;20039;-34
2024/01/08 03:08:32;;;;;;;5.43;3.00;;;-1.80;99.90;;;-3.02;100.00;97639.91;4938829;28;20158;-34
2024/01/08 03:10:58;;;;;;;4.20;3.03;;;-1.80;99.90;;;-2.91;100.00;97640.13;4937730;28;20476;-35
2024/01/08 03:13:23;;;;;;;4.85;2.50;;;-1.80;99.90;;;-3.05;100.00;97634.69;4937405;28;20399;-35
2024/01/08 03:15:49;;;;;;;3.75;2.60;;;-1.80;99.90;;;-2.98;100.00;97638.25;4937539;28;20226;-35
2024/01/08 03:18:15;;;;;;;3.22;2.25;;;-1.80;99.90;;;-3.00;100.00;97643.38;4937272;28;20031;-35
2024/01/08 03:20:41;;;;;;;4.65;2.72;;;-1.80;99.90;;;-3.04;100.00;97632.97;4911355;28;20043;-35
2024/01/08 03:23:09;;;;;;;4.20;2.50;;;-1.80;99.90;;;-2.93;100.00;97649.53;4932699;28;20046;-35
2024/01/08 03:25:35;;;;;;;3.97;2.40;;;-1.80;99.90;;;-2.97;100.00;97643.44;4938550;28;20114;-35
2024/01/08 03:28:01;;;;;;;3.55;2.47;;;-1.80;99.90;;;-2.98;100.00;97643.41;4939092;28;20039;-35
2024/01/08 03:30:26;;;;;;;4.38;2.42;;;-1.80;99.90;;;-2.93;100.00;97642.66;4934302;28;20094;-34
2024/01/08 03:32:52;;;;;;;4.53;2.70;;;-1.80;99.90;;;-3.00;100.00;97637.34;4930262;28;20042;-33
2024/01/08 03:35:18;;;;;;;3.88;2.63;;;-1.80;99.90;;;-2.93;100.00;97631.47;4932221;28;20114;-34
2024/01/08 03:37:45;;;;;;;3.47;2.33;;;-1.80;99.90;;;-2.99;100.00;97629.66;4927283;28;20046;-34
2024/01/08 03:40:11;;;;;;;4.25;2.67;;;-1.80;99.90;;;-2.94;100.00;97627.19;4935404;28;20597;-35
2024/01/08 03:42:37;;;;;;;4.90;2.53;;;-1.80;99.90;;;-2.98;100.00;97623.66;4929806;28;20043;-35
2024/01/08 03:45:03;;;;;;;4.40;2.78;;;-1.80;99.90;;;-2.94;100.00;97625.47;4936196;28;20094;-35
2024/01/08 03:47:29;;;;;;;3.67;2.42;;;-1.80;99.90;;;-2.97;100.00;97629.69;4937344;28;20039;-35
2024/01/08 03:49:55;;;;;;;3.97;2.50;;;-1.80;99.90;;;-2.99;100.00;97633.94;4937894;28;20035;-35
2024/01/08 03:52:22;;;;;;;3.58;2.33;;;-1.80;99.90;;;-2.95;100.00;97636.59;4938895;28;20061;-35
2024/01/08 03:54:48;;;;;;;3.55;2.42;;;-1.80;99.90;;;-3.02;100.00;97624.41;4936853;28;21093;-35
2024/01/08 03:57:14;;;;;;;3.78;2.80;;;-1.80;99.90;;;-3.10;100.00;97618.25;4939120;28;20039;-35
2024/01/08 03:59:42;;;;;;;3.67;2.33;;;-1.80;99.90;;;-2.90;100.00;97623.81;4936253;28;20232;-35
2024/01/08 04:02:08;;;;;;;3.33;2.33;;;-1.80;99.90;;;-2.98;100.00;97631.41;4925901;28;20122;-34
2024/01/08 04:04:33;;;;;;;4.65;2.55;;;-1.80;99.90;;;-3.02;100.00;97620.97;4927304;28;20386;-34
2024/01/08 04:06:59;;;;;;;4.32;2.80;;;-1.80;99.90;;;-2.73;100.00;97631.84;4938614;28;20528;-34
2024/01/08 04:09:25;;;;;;;4.32;2.70;;;-1.70;99.90;;;-2.85;100.00;97631.63;4935868;28;20071;-34
2024/01/08 04:11:51;;;;;;;5.03;2.72;;;-1.70;99.90;;;-2.88;100.00;97630.72;4936894;28;20277;-34
2024/01/08 04:14:17;;;;;;;6.20;2.85;;;-1.70;99.90;;;-2.97;100.00;97634.84;4937805;28;20045;-34
2024/01/08 04:16:43;;;;;;;5.68;3.00;;;-1.70;99.90;;;-3.00;100.00;97629.63;4933299;28;20038;-34
2024/01/08 04:19:08;;;;;;;4.53;2.92;;;-1.80;99.90;;;-2.99;100.00;97639.13;4932482;28;20137;-34
2024/01/08 04:21:34;;;;;;;4.13;2.85;;;-1.80;99.90;;;-2.91;100.00;97643.59;4933389;28;20055;-34
2024/01/08 04:24:00;;;;;;;4.88;2.88;;;-1.80;99.90;;;-3.05;100.00;97615.75;4940862;28;20101;-34
2024/01/08 04:26:27;;;;;;;3.97;2.75;;;-1.80;99.90;;;-2.86;100.00;97633.34;4933882;28;20039;-34
2024/01/08 04:28:52;;;;;;;5.05;2.75;;;-1.80;99.90;;;-2.96;100.00;97631.41;4937036;28;20028;-34
2024/01/08 04:31:20;;;;;;;4.15;2.75;;;-1.80;99.90;;;-3.02;100.00;97641.63;4933739;28;20031;-34
2024/01/08 04:33:46;;;;;;;4.95;2.60;;;-1.80;99.90;;;-2.99;100.00;97647.72;4937396;28;20314;-34
2024/01/08 04:36:13;;;;;;;3.60;2.55;;;-1.80;99.90;;;-3.02;100.00;97645.06;4940073;28;20317;-35
2024/01/08 04:38:39;;;;;;;4.15;2.35;;;-1.80;99.90;;;-2.86;100.00;97641.09;4929958;28;20035;-35
2024/01/08 04:41:05;;;;;;;3.55;2.55;;;-1.80;99.90;;;-2.98;100.00;97649.47;4936921;28;20035;-34
2024/01/08 04:43:30;;;;;;;6.75;2.92;;;-1.80;99.90;;;-3.04;100.00;97644.16;4933990;28;20412;-34
2024/01/08 04:45:56;;;;;;;4.13;2.63;;;-1.80;99.90;;;-3.08;100.00;97637.22;4936803;28;20036;-34
2024/01/08 04:48:22;;;;;;;5.03;3.00;;;-1.80;99.90;;;-3.09;100.00;97650.94;4936472;28;20408;-34
2024/01/08 04:50:47;;;;;;;5.38;2.72;;;-1.90;99.90;;;-3.05;100.00;97652.75;4936634;28;20400;-34
2024/01/08 04:53:13;;;;;;;4.32;2.92;;;-1.90;99.90;;;-3.12;100.00;97661.22;4938328;28;20027;-35
2024/01/08 04:55:39;;;;;;;4.45;2.67;;;-1.90;99.90;;;-3.11;100.00;97665.53;4935535;28;20603;-35
2024/01/08 04:58:08;;;;;;;4.10;2.42;;;-1.90;99.90;;;-3.08;100.00;97670.75;4934640;28;20043;-35
2024/01/08 05:00:34;;;;;;;4.35;2.50;;;-1.90;99.90;;;-3.15;100.00;97666.31;4931642;28;20062;-34
2024/01/08 05:03:00;;;;;;;3.88;2.40;;;-1.90;99.90;;;-3.17;100.00;97655.94;4935675;28;20479;-34
2024/01/08 05:05:26;;;;;;;3.55;2.20;;;-2.00;99.90;;;-3.11;100.00;97668.09;4936073;28;20090;-34
2024/01/08 05:07:52;;;;;;;3.40;2.30;;;-2.00;99.90;;;-3.14;100.00;97668.91;4937789;28;20035;-34
2024/01/08 05:10:18;;;;;;;4.90;2.70;;;-1.90;99.90;;;-3.21;100.00;97661.88;4938933;28;20054;-34
2024/01/08 05:12:43;;;;;;;4.82;2.92;;;-2.00;99.90;;;-3.12;100.00;97674.97;4934751;28;20479;-34
2024/01/08 05:15:10;;;;;;;8.02;2.67;;;-1.90;99.90;;;-3.23;100.00;97667.84;4934567;28;20118;-34
2024/01/08 05:17:35;;;;;;;4.03;2.75;;;-2.00;99.90;;;-3.20;100.00;97665.31;4938788;28;20093;-34
2024/01/08 05:20:01;;;;;;;4.28;2.50;;;-2.00;99.90;;;-3.25;100.00;97670.38;4925608;28;20043;-34
2024/01/08 05:22:27;;;;;;;7.05;2.67;;;-2.00;99.90;;;-3.05;100.00;97673.41;4933697;28;20145;-34
2024/01/08 05:24:53;;;;;;;8.00;3.30;;;-2.00;99.90;;;-3.16;100.00;97651.66;4936333;28;20403;-34
2024/01/08 05:27:18;;;;;;;4.13;2.50;;;-2.00;99.90;;;-3.14;100.00;97678.34;4937075;28;20032;-34
2024/01/08 05:29:45;;;;;;;4.45;2.60;;;-2.00;99.90;;;-3.12;100.00;97685.28;4932298;28;20649;-34
2024/01/08 05:32:10;;;;;;;4.05;2.70;;;-1.90;99.90;;;-3.21;100.00;97673.88;4937521;28;20065;-34
2024/01/08 05:34:36;;;;;;;3.53;2.50;;;-2.00;99.90;;;-3.14;100.00;97676.66;4930243;28;20050;-35
2024/01/08 05:37:02;;;;;;;3.85;2.67;;;-2.00;99.90;;;-3.26;100.00;97669.50;4931971;28;20400;-35
2024/01/08 05:39:28;;;;;;;4.55;2.70;;;-2.00;99.90;;;-3.30;100.00;97678.03;4934579;28;20046;-35
2024/01/08 05:41:53;;;;;;;4.43;2.58;;;-2.00;99.90;;;-3.28;100.00;97678.06;4930352;28;20065;-35
2024/01/08 05:44:19;;;;;;;6.20;2.92;;;-2.10;99.90;;;-3.36;100.00;97654.66;4937878;28;20114;-35
2024/01/08 05:46:45;;;;;;;4.93;3.20;;;-2.10;99.90;;;-3.36;100.00;97669.28;4928570;28;20035;-35
2024/01/08 05:49:11;;;;;;;5.28;3.15;;;-2.10;99.90;;;-3.32;100.00;97674.56;4938756;28;20086;-35
2024/01/08 05:51:37;;;;;;;4.30;2.72;;;-2.10;99.90;;;-3.29;100.00;97684.06;4931196;28;20058;-35
2024/01/08 05:54:03;;;;;;;3.90;2.47;;;-2.10;99.90;;;-3.55;100.00;97652.50;4938752;28;20035;-35
2024/01/08 05:56:31;;;;;;;4.63;2.78;;;-2.10;99.90;;;-3.35;100.00;97679.63;4933626;28;20076;-35
2024/01/08 05:58:57;;;;;;;4.10;2.53;;;-2.10;99.90;;;-3.27;100.00;97687.53;4932183;28;20164;-35
2024/01/08 06:01:23;;;;;;;4.50;3.00;;;-2.10;99.90;;;-3.34;100.00;97686.53;4932621;28;20126;-34
2024/01/08 06:03:51;;;;;;;4.25;2.85;;;-2.10;99.90;;;-3.45;100.00;97680.25;4931312;28;20039;-35
2024/01/08 06:06:17;;;;;;;6.53;2.70;;;-2.20;99.90;;;-3.40;100.00;97686.38;4926952;28;20681;-36
2024/01/08 06:08:43;;;;;;;3.20;2.40;;;-2.20;99.90;;;-3.39;100.00;97690.72;4931928;28;20560;-35
2024/01/08 06:11:09;;;;;;;4.30;2.20;;;-2.20;99.90;;;-3.47;100.00;97684.50;4936230;28;20042;-34
2024/01/08 06:13:36;;;;;;;5.07;2.33;;;-2.20;99.90;;;-3.38;100.00;97701.91;4935875;28;20031;-35
2024/01/08 06:16:02;;;;;;;4.75;2.50;;;-2.20;99.90;;;-3.42;100.00;97698.38;4929668;28;20423;-35
2024/01/08 06:18:31;;;;;;;4.80;2.88;;;-2.20;99.90;;;-3.41;100.00;97702.72;4938312;28;20034;-35
2024/01/08 06:20:57;;;;;;;3.35;2.05;;;-2.20;99.90;;;-3.42;100.00;97708.69;4937144;28;20082;-35
2024/01/08 06:23:23;;;;;;;3.20;2.28;;;-2.20;99.90;;;-3.40;100.00;97701.88;4933137;28;20039;-40
2024/01/08 06:25:49;;;;;;;4.20;2.45;;;-2.20;99.90;;;-3.47;100.00;97699.97;4932866;28;20035;-37
2024/01/08 06:29:01;;;;;;;5.97;2.80;;;-2.20;99.90;;;-3.42;100.00;97707.84;4933716;28;20046;-35
2024/01/08 06:31:27;;;;;;;4.03;2.40;;;-2.20;99.90;;;-3.44;100.00;97705.22;4946289;28;20511;-35
2024/01/08 06:33:53;;;;;;;3.58;2.28;;;-2.20;99.90;;;-3.47;100.00;97712.88;4931722;28;20071;-35
2024/01/08 06:36:18;;;;;;;4.13;2.30;;;-2.20;99.90;;;-3.50;100.00;97710.22;4936588;28;20059;-35
2024/01/08 06:38:45;;;;;;;4.63;2.65;;;-2.30;99.90;;;-3.29;100.00;97712.41;4933433;28;20047;-35
2024/01/08 06:41:11;;;;;;;3.22;2.20;;;-2.20;99.90;;;-3.38;100.00;97713.09;4937225;28;20440;-35
2024/01/08 06:43:37;;;;;;;4.65;2.25;;;-2.20;99.90;;;-3.44;100.00;97712.09;4922916;28;20038;-35
2024/01/08 06:46:05;;;;;;;5.15;2.63;;;-2.20;99.90;;;-3.51;100.00;97716.22;4930015;28;20050;-35
2024/01/08 06:48:31;;;;;;;4.57;2.40;;;-2.30;99.90;;;-3.55;100.00;97704.06;4921366;28;20049;-35
2024/01/08 06:51:01;;;;;;;4.85;2.47;;;-2.30;99.90;;;-3.58;100.00;97699.72;4933404;28;20810;-35
2024/01/08 06:53:27;;;;;;;3.58;2.22;;;-2.30;99.90;;;-3.54;100.00;97705.84;4934904;28;20656;-35
2024/01/08 06:55:52;;;;;;;4.40;2.25;;;-2.30;99.90;;;-3.52;100.00;97712.75;4949258;28;20039;-35
2024/01/08 06:58:18;;;;;;;5.85;2.28;;;-2.30;99.90;;;-3.47;100.00;97715.44;4939127;28;20060;-35
2024/01/08 07:00:44;;;;;;;4.05;2.50;;;-2.30;99.90;;;-3.54;100.00;97719.59;4933440;28;20035;-34
2024/01/08 07:03:09;;;;;;;5.88;2.53;;;-2.30;99.90;;;-3.52;100.00;97717.91;4916847;28;20114;-34
2024/01/08 07:05:35;;;;;;;5.10;2.50;;;-2.30;99.90;;;-3.67;100.00;97676.31;4930168;28;20411;-34
2024/01/08 07:08:01;;;;;;;5.72;2.53;;;-2.30;99.90;;;-3.47;100.00;97724.06;4927966;28;20158;-34
2024/01/08 07:10:28;;;;;;;5.10;2.55;;;-2.30;99.90;;;-3.48;100.00;97724.91;4932205;28;20028;-35
2024/01/08 07:12:54;;;;;;;3.72;2.08;;;-2.20;99.90;;;-3.48;100.00;97714.59;4929968;28;20381;-34
2024/01/08 07:15:40;;;;;;;2.85;2.40;;;-2.30;99.90;;;-3.49;100.00;97722.28;4928325;28;20126;-34
2024/01/08 07:18:10;;;;;;;3.33;2.25;;;-2.30;99.90;;;-3.51;100.00;97721.38;4928658;28;20027;-34
2024/01/08 07:20:37;;;;;;;4.10;2.35;;;-2.30;99.90;;;-3.52;100.00;97720.50;4929634;28;20027;-35
2024/01/08 07:23:05;;;;;;;5.32;2.30;;;-2.30;99.90;;;-3.35;100.00;97730.34;4927653;28;20058;-35
2024/01/08 07:25:31;;;;;;;5.88;2.47;;;-2.30;99.90;;;-3.42;100.00;97724.16;4921782;28;20436;-34
2024/01/08 07:27:58;;;;;;;4.47;2.53;;;-2.20;99.90;;;-3.45;100.00;97726.66;4930447;28;20058;-35
2024/01/08 07:30:24;;;;;;;4.88;2.47;;;-2.30;99.90;;;-3.39;100.00;97720.78;4928502;28;20036;-35
2024/01/08 07:32:50;;;;;;;4.20;2.10;;;-2.30;99.90;;;-3.56;100.00;97710.94;4932967;28;20032;-35
2024/01/08 07:35:15;;;;;;;3.65;2.50;;;-2.20;99.90;;;-3.57;100.00;97713.50;4931826;28;20102;-35
2024/01/08 07:37:41;;;;;;;4.55;2.63;;;-2.30;99.90;;;-3.42;100.00;97729.34;4920704;28;20027;-35
2024/01/08 07:40:08;;;;;;;4.57;2.67;;;-2.20;99.90;;;-3.42;100.00;97721.59;4928446;28;20621;-35
2024/01/08 07:42:33;;;;;;;5.57;2.60;;;-2.20;99.90;;;-3.33;100.00;97724.38;4931141;28;20035;-35
2024/01/08 07:44:59;;;;;;;4.03;2.45;;;-2.20;99.90;;;-3.39;100.00;97728.50;4929196;28;21149;-35
2024/01/08 07:47:26;;;;;;;3.88;2.15;;;-2.20;99.90;;;-3.38;100.00;97732.84;4931091;28;23926;-35
2024/01/08 07:49:51;;;;;;;3.88;2.33;;;-2.20;99.90;;;-3.46;100.00;97724.94;4928950;28;20126;-35
2024/01/08 07:52:17;;;;;;;3.58;2.42;;;-2.20;99.90;;;-3.40;100.00;97739.69;4930809;28;20178;-35
2024/01/08 07:54:43;;;;;;;4.47;2.80;;;-2.20;99.90;;;-3.37;100.00;97742.34;4928982;28;20348;-35
2024/01/08 07:57:09;;;;;;;3.95;2.22;;;-2.20;99.90;;;-3.44;100.00;97735.31;4934048;28;20035;-35
2024/01/08 07:59:35;;;;;;;5.40;2.90;;;-2.20;99.90;;;-3.35;100.00;97751.84;4927083;28;20038;-35
2024/01/08 08:02:00;;;;;;;5.22;2.90;;;-2.20;99.90;;;-3.37;100.00;97748.38;4925019;28;20137;-35
2024/01/08 08:04:26;;;;;;;4.00;2.35;;;-2.10;99.90;;;-3.33;100.00;97749.31;4932681;28;20034;-35
2024/01/08 08:06:52;;;;;;;4.82;2.63;;;-2.10;99.90;;;-3.31;100.00;97747.63;4932189;28;20075;-35
2024/01/08 08:09:17;;;;;;;5.03;2.88;;;-2.10;99.90;;;-3.30;100.00;97752.84;4935740;28;20187;-35
2024/01/08 08:11:43;;;;;;;6.40;2.80;;;-2.10;99.90;;;-3.21;100.00;97753.88;4938618;28;20031;-35
2024/01/08 08:14:09;;;;;;;4.35;2.58;;;-2.00;99.90;;;-3.20;100.00;97758.19;4938235;28;20057;-35
2024/01/08 08:16:34;;;;;;;6.10;2.67;;;-2.00;99.90;;;-3.21;100.00;97761.59;4930748;28;20035;-35
2024/01/08 08:19:00;;;;;;;4.95;2.67;;;-2.00;99.90;;;-3.08;100.00;97755.91;4926887;28;20058;-35
2024/01/08 08:21:26;;;;;;;3.65;2.30;;;-1.90;99.90;;;-3.10;100.00;97761.03;4927471;28;20480;-35
2024/01/08 08:23:51;;;;;;;4.45;2.40;;;-1.90;99.90;;;-3.04;100.00;97760.28;4944167;28;20034;-35
2024/01/08 08:26:17;;;;;;;5.90;2.50;;;-1.90;99.90;;;-2.95;100.00;97755.31;4939696;28;20547;-35
2024/01/08 08:28:43;;;;;;;4.47;2.67;;;-1.80;99.90;;;-3.03;100.00;97764.63;4929356;28;20094;-35
2024/01/08 08:31:09;;;;;;;5.18;2.70;;;-1.80;99.90;;;-3.05;100.00;97766.31;4928535;28;20097;-35
2024/01/08 08:33:35;;;;;;;5.03;2.40;;;-1.80;99.90;;;-3.12;100.00;97747.22;4932097;28;20039;-34
2024/01/08 08:36:01;;;;;;;4.18;2.60;;;-1.80;99.90;;;-3.00;100.00;97771.56;4932777;28;20359;-35
2024/01/08 08:38:27;;;;;;;3.88;2.58;;;-1.80;99.90;;;-2.97;100.00;97764.75;4936548;28;20030;-35
2024/01/08 08:40:53;;;;;;;4.47;2.55;;;-1.80;99.90;;;-2.95;100.00;97759.63;4934770;28;20058;-35
2024/01/08 08:43:18;;;;;;;3.60;2.33;;;-1.80;99.90;;;-2.84;100.00;97767.59;4939623;28;20054;-35
2024/01/08 08:45:44;;;;;;;4.60;2.58;;;-1.70;99.90;;;-2.93;100.00;97761.38;4932085;28;20664;-35
2024/01/08 08:48:10;;;;;;;5.78;2.80;;;-1.70;99.90;;;-3.00;100.00;97754.34;4938542;28;20031;-35
2024/01/08 08:50:36;;;;;;;4.43;2.67;;;-1.70;99.90;;;-3.02;100.00;97766.34;4934754;28;20035;-35
2024/01/08 08:53:02;;;;;;;5.32;2.60;;;-1.70;99.90;;;-2.93;100.00;97765.69;4935826;28;20042;-35
2024/01/08 08:55:28;;;;;;;5.55;2.55;;;-1.70;99.90;;;-2.97;100.00;97769.03;4922864;28;20404;-35
2024/01/08 08:57:54;;;;;;;4.47;2.50;;;-1.70;99.90;;;-2.91;100.00;97771.75;4935188;28;20171;-35
2024/01/08 09:00:20;;;;;;;3.60;2.55;;;-1.70;99.90;;;-2.93;100.00;97776.00;4936274;28;20086;-35
2024/01/08 09:02:45;;;;;;;4.40;2.70;;;-1.70;99.90;;;-2.84;100.00;97777.94;4934596;28;20045;-35
2024/01/08 09:05:11;;;;;;;4.72;2.88;;;-1.70;99.90;;;-2.84;100.00;97780.50;4937909;28;20562;-35
2024/01/08 09:07:37;;;;;;;5.82;2.28;;;-1.60;99.90;;;-2.81;100.00;97783.16;4932171;28;20047;-34
2024/01/08 09:10:03;;;;;;;5.32;3.00;;;-1.60;99.90;;;-2.85;100.00;97784.81;4937495;28;20122;-35
2024/01/08 09:12:28;;;;;;;3.60;2.33;;;-1.60;99.90;;;-2.71;100.00;97782.50;4938608;28;20051;-35
2024/01/08 09:14:55;;;;;;;7.13;2.67;;;-1.50;99.90;;;-2.57;100.00;97796.56;4927739;28;20110;-35
2024/01/08 09:17:21;;;;;;;4.80;2.65;;;-1.40;99.90;;;-2.61;100.00;97794.78;4939926;28;20055;-34
2024/01/08 09:19:49;;;;;;;3.85;2.30;;;-1.40;99.90;;;-2.58;100.00;97800.03;4932756;28;20122;-35
2024/01/08 09:22:15;;;;;;;4.45;2.58;;;-1.40;99.90;;;-2.68;100.00;97800.66;4936748;28;20035;-35
2024/01/08 09:24:41;;;;;;;4.50;2.63;;;-1.40;99.90;;;-2.64;100.00;97783.50;4933539;28;20683;-35
2024/01/08 09:27:06;;;;;;;5.90;3.05;;;-1.30;99.90;;;-2.68;100.00;97800.66;4938110;28;20154;-35
2024/01/08 09:29:32;;;;;;;4.72;2.65;;;-1.40;99.90;;;-2.56;100.00;97805.22;4938224;28;20074;-35
2024/01/08 09:31:58;;;;;;;5.82;2.80;;;-1.30;99.90;;;-2.47;100.00;97810.56;4929436;28;20035;-34
2024/01/08 09:34:23;;;;;;;3.55;2.72;;;-1.30;99.90;;;-2.41;100.00;97813.28;4933108;28;20032;-34
2024/01/08 09:36:50;;;;;;;4.10;2.55;;;-1.30;99.90;;;-2.49;100.00;97817.44;4933196;28;20403;-35
2024/01/08 09:39:16;;;;;;;3.45;2.40;;;-1.30;99.90;;;-2.53;100.00;97824.25;4938809;28;20445;-35
2024/01/08 09:41:45;;;;;;;4.43;2.42;;;-1.30;99.90;;;-2.50;100.00;97821.69;4939104;28;20030;-35
2024/01/08 09:44:14;;;;;;;6.38;2.63;;;-1.20;99.90;;;-2.40;100.00;97821.91;4926419;28;20094;-35
2024/01/08 09:46:47;;;;;;;5.38;2.85;;;-1.20;99.90;;;-2.36;100.00;97827.16;4938425;28;20122;-34
2024/01/08 09:49:15;;;;;;;3.47;2.45;;;-1.20;99.90;;;-2.31;100.00;97829.84;4933855;28;20035;-34
2024/01/08 09:51:42;;;;;;;5.97;2.97;;;-1.10;99.90;;;-2.48;100.00;97824.31;4934498;28;20043;-34
2024/01/08 09:54:08;;;;;;;5.88;2.63;;;-1.20;99.90;;;-2.58;100.00;97831.00;4936442;28;20488;-34
2024/01/08 09:56:33;;;;;;;7.85;2.90;;;-1.20;99.90;;;-2.74;100.00;97816.88;4932558;28;20567;-35
2024/01/08 09:58:59;;;;;;;4.32;2.53;;;-1.40;99.90;;;-2.65;100.00;97823.09;4932804;28;20035;-35
2024/01/08 10:01:26;;;;;;;6.03;3.10;;;-1.40;99.90;;;-2.55;100.00;97818.16;4952703;28;20039;-35
2024/01/08 10:03:52;;;;;;;9.25;2.88;;;-1.30;99.90;;;-2.65;100.00;97823.97;4933046;28;20354;-35
2024/01/08 10:06:18;;;;;;;5.78;2.50;;;-1.30;99.90;;;-2.69;100.00;97817.00;4936147;28;20062;-35
2024/01/08 10:08:44;;;;;;;3.55;2.22;;;-1.40;99.90;;;-2.66;100.00;97822.22;4937458;28;20481;-35
2024/01/08 10:11:11;;;;;;;5.47;3.00;;;-1.40;99.90;;;-2.84;100.00;97814.06;4939060;28;20126;-34